Date,TemperatureHighF,TemperatureAvgF,TemperatureLowF,DewpointHighF,DewpointAvgF,DewpointLowF,HumidityHigh,HumidityAvg,HumidityLow,PressureMaxIn,PressureMinIn,WindSpeedMaxMPH,WindSpeedAvgMPH,GustSpeedMaxMPH,PrecipitationSumIn
2013-8-1,78.4,67.0,59.4,67.8,62.3,57.9,96,86,62,30.03,29.85,4,0,7,0.04
2013-8-2,84.0,70.9,63.0,68.2,63.2,59.5,97,79,48,29.87,29.78,6,1,9,0.52
2013-8-3,78.8,68.6,61.9,64.6,61.8,59.5,95,80,55,29.85,29.77,5,1,6,0.00
2013-8-4,81.3,66.4,54.9,59.7,56.4,52.9,94,72,42,29.88,29.76,4,1,8,0.00
2013-8-5,78.1,63.6,52.5,54.1,49.7,43.3,90,64,31,30.03,29.88,6,1,9,0.00
2013-8-6,80.6,63.9,48.7,57.9,52.1,46.6,94,69,39,30.13,30.04,2,0,3,0.00
2013-8-7,80.2,66.6,53.8,60.4,55.8,52.2,95,72,42,30.17,30.09,3,0,8,0.00
2013-8-8,79.0,70.0,63.9,71.1,65.9,57.7,95,87,75,30.11,29.99,2,0,6,0.07
2013-8-9,74.3,71.6,69.6,73.4,69.9,67.8,97,94,89,30.01,29.73,5,0,9,1.42
2013-8-10,83.5,71.2,59.5,69.3,61.5,52.9,98,74,42,30.00,29.78,7,1,11,0.01
2013-8-11,81.7,65.7,52.0,60.3,54.9,50.0,94,71,41,30.07,29.99,5,0,6,0.00
2013-8-12,84.7,69.4,57.2,63.3,58.7,55.0,95,72,40,30.02,29.91,3,0,6,0.00
2013-8-13,74.5,66.4,61.5,67.5,63.2,59.5,95,90,74,29.91,29.67,2,0,4,0.01
2013-8-14,73.2,64.9,58.6,62.8,54.0,48.2,95,69,48,29.96,29.65,7,2,11,0.00
2013-8-15,77.2,62.1,50.7,54.9,52.0,48.7,94,73,41,30.11,29.96,5,0,7,0.00
2013-8-16,80.2,64.7,51.4,59.0,54.2,49.5,94,72,40,30.18,30.10,4,0,7,0.00
2013-8-17,82.9,67.0,53.2,64.8,58.1,51.6,94,76,44,30.26,30.18,3,0,3,0.00
2013-8-18,80.1,66.6,57.4,64.8,60.0,55.6,94,81,51,30.26,30.07,2,0,4,0.00
2013-8-19,82.0,69.1,58.6,63.3,59.9,56.1,93,75,47,30.07,29.94,3,0,5,0.00
2013-8-20,87.8,72.1,59.5,66.0,61.5,57.6,94,73,42,30.08,29.97,3,0,5,0.00
2013-8-21,90.1,73.0,60.4,67.6,62.9,58.5,94,74,42,30.13,30.01,4,0,6,0.00
2013-8-22,84.7,72.6,61.3,72.1,66.8,59.5,95,83,63,30.02,29.81,3,0,7,0.00
2013-8-23,83.3,71.0,58.8,67.8,59.9,52.2,92,70,42,30.11,29.81,3,0,5,0.00
2013-8-24,82.0,64.5,50.7,54.1,50.5,45.5,91,65,30,30.32,30.11,3,0,5,0.00
2013-8-25,83.8,66.9,51.1,59.5,53.3,49.3,94,66,31,30.35,30.17,3,0,6,0.00
2013-8-26,78.6,69.8,63.7,66.7,61.5,56.5,90,75,61,30.18,29.86,6,1,8,0.00
2013-8-27,82.6,71.9,66.0,72.7,67.6,63.9,97,87,60,29.88,29.81,3,0,4,0.16
2013-8-28,86.2,72.2,61.5,70.7,65.1,60.4,96,80,52,29.94,29.82,3,0,5,0.00
2013-8-29,66.9,63.9,59.9,64.0,61.4,56.8,95,91,88,30.05,29.91,2,0,5,0.01
2013-8-30,81.1,68.8,59.7,67.6,63.2,57.2,93,83,62,30.01,29.82,4,0,5,0.00
2013-8-31,77.5,72.6,67.6,72.3,69.7,65.5,97,91,83,29.82,29.77,4,0,4,0.05